sensor_id;sensor_type;location;lat;lon;timestamp;P1;durP1;ratioP1;P2;durP2;ratioP2
19107;SDS011;9686;48.832;9.126;2022-08-23T00:00:43;6.00;;;2.80;;
19107;SDS011;9686;48.832;9.126;2022-08-23T00:03:09;2.13;;;1.90;;
19107;SDS011;9686;48.832;9.126;2022-08-23T00:05:34;2.77;;;2.30;;
19107;SDS011;9686;48.832;9.126;2022-08-23T00:07:59;2.93;;;2.10;;
19107;SDS011;9686;48.832;9.126;2022-08-23T00:10:25;4.67;;;2.20;;
19107;SDS011;9686;48.832;9.126;2022-08-23T00:12:50;3.83;;;2.00;;
19107;SDS011;9686;48.832;9.126;2022-08-23T00:15:16;2.87;;;2.17;;
19107;SDS011;9686;48.832;9.126;2022-08-23T00:17:44;2.97;;;2.10;;
19107;SDS011;9686;48.832;9.126;2022-08-23T00:20:11;4.93;;;2.27;;
19107;SDS011;9686;48.832;9.126;2022-08-23T00:22:39;5.60;;;3.20;;
19107;SDS011;9686;48.832;9.126;2022-08-23T00:25:05;3.37;;;2.30;;
19107;SDS011;9686;48.832;9.126;2022-08-23T00:27:33;3.53;;;2.37;;
19107;SDS011;9686;48.832;9.126;2022-08-23T00:29:58;5.10;;;2.00;;
19107;SDS011;9686;48.832;9.126;2022-08-23T00:32:28;2.33;;;1.70;;
19107;SDS011;9686;48.832;9.126;2022-08-23T00:34:56;3.57;;;2.30;;
19107;SDS011;9686;48.832;9.126;2022-08-23T00:37:23;3.97;;;1.90;;
19107;SDS011;9686;48.832;9.126;2022-08-23T00:39:49;3.90;;;2.37;;
19107;SDS011;9686;48.832;9.126;2022-08-23T00:45:15;3.50;;;2.27;;
19107;SDS011;9686;48.832;9.126;2022-08-23T00:48:05;4.90;;;2.10;;
19107;SDS011;9686;48.832;9.126;2022-08-23T00:53:07;2.77;;;2.27;;
19107;SDS011;9686;48.832;9.126;2022-08-23T00:55:40;3.60;;;2.37;;
19107;SDS011;9686;48.832;9.126;2022-08-23T00:58:08;4.27;;;2.87;;
19107;SDS011;9686;48.832;9.126;2022-08-23T01:00:34;2.47;;;2.27;;
19107;SDS011;9686;48.832;9.126;2022-08-23T01:03:00;2.90;;;2.40;;
19107;SDS011;9686;48.832;9.126;2022-08-23T01:05:29;3.20;;;1.97;;
19107;SDS011;9686;48.832;9.126;2022-08-23T01:08:05;2.87;;;2.30;;
19107;SDS011;9686;48.832;9.126;2022-08-23T01:10:34;5.07;;;2.53;;
19107;SDS011;9686;48.832;9.126;2022-08-23T01:13:06;2.83;;;2.53;;
19107;SDS011;9686;48.832;9.126;2022-08-23T01:15:40;2.43;;;2.10;;
19107;SDS011;9686;48.832;9.126;2022-08-23T01:18:11;5.03;;;2.60;;
19107;SDS011;9686;48.832;9.126;2022-08-23T01:20:47;2.40;;;2.20;;
19107;SDS011;9686;48.832;9.126;2022-08-23T01:25:47;3.90;;;2.40;;
19107;SDS011;9686;48.832;9.126;2022-08-23T01:28:14;3.80;;;2.37;;
19107;SDS011;9686;48.832;9.126;2022-08-23T01:30:39;2.87;;;2.30;;
19107;SDS011;9686;48.832;9.126;2022-08-23T01:33:07;5.23;;;2.63;;
19107;SDS011;9686;48.832;9.126;2022-08-23T01:35:40;4.00;;;2.77;;
19107;SDS011;9686;48.832;9.126;2022-08-23T01:38:09;4.03;;;2.30;;
19107;SDS011;9686;48.832;9.126;2022-08-23T01:40:35;4.30;;;2.43;;
19107;SDS011;9686;48.832;9.126;2022-08-23T01:43:01;5.93;;;2.50;;
19107;SDS011;9686;48.832;9.126;2022-08-23T01:45:28;2.73;;;2.50;;
19107;SDS011;9686;48.832;9.126;2022-08-23T01:47:55;3.93;;;2.30;;
19107;SDS011;9686;48.832;9.126;2022-08-23T01:50:20;4.93;;;2.63;;
19107;SDS011;9686;48.832;9.126;2022-08-23T01:52:46;3.63;;;2.70;;
19107;SDS011;9686;48.832;9.126;2022-08-23T01:55:11;2.93;;;2.20;;
19107;SDS011;9686;48.832;9.126;2022-08-23T01:57:37;3.77;;;2.70;;
19107;SDS011;9686;48.832;9.126;2022-08-23T02:00:05;3.03;;;2.43;;
19107;SDS011;9686;48.832;9.126;2022-08-23T02:02:32;3.00;;;2.63;;
19107;SDS011;9686;48.832;9.126;2022-08-23T02:04:57;3.70;;;2.50;;
19107;SDS011;9686;48.832;9.126;2022-08-23T02:07:26;3.60;;;2.60;;
19107;SDS011;9686;48.832;9.126;2022-08-23T02:09:52;3.33;;;2.53;;
19107;SDS011;9686;48.832;9.126;2022-08-23T02:12:18;4.97;;;2.87;;
19107;SDS011;9686;48.832;9.126;2022-08-23T02:14:43;7.37;;;3.10;;
19107;SDS011;9686;48.832;9.126;2022-08-23T02:17:09;4.47;;;2.97;;
19107;SDS011;9686;48.832;9.126;2022-08-23T02:19:35;4.77;;;2.80;;
19107;SDS011;9686;48.832;9.126;2022-08-23T02:22:02;4.80;;;2.87;;
19107;SDS011;9686;48.832;9.126;2022-08-23T02:24:29;4.20;;;3.80;;
19107;SDS011;9686;48.832;9.126;2022-08-23T02:26:56;3.90;;;2.87;;
19107;SDS011;9686;48.832;9.126;2022-08-23T02:29:24;3.90;;;2.77;;
19107;SDS011;9686;48.832;9.126;2022-08-23T02:31:53;4.10;;;2.43;;
19107;SDS011;9686;48.832;9.126;2022-08-23T02:34:19;5.13;;;3.13;;
19107;SDS011;9686;48.832;9.126;2022-08-23T02:36:44;4.13;;;2.90;;
19107;SDS011;9686;48.832;9.126;2022-08-23T02:39:11;4.80;;;3.63;;
19107;SDS011;9686;48.832;9.126;2022-08-23T02:41:37;3.03;;;2.73;;
19107;SDS011;9686;48.832;9.126;2022-08-23T02:44:03;3.50;;;2.90;;
19107;SDS011;9686;48.832;9.126;2022-08-23T02:46:29;7.10;;;3.40;;
19107;SDS011;9686;48.832;9.126;2022-08-23T02:48:55;5.63;;;3.13;;
19107;SDS011;9686;48.832;9.126;2022-08-23T02:51:21;3.73;;;3.10;;
19107;SDS011;9686;48.832;9.126;2022-08-23T02:53:47;6.00;;;3.37;;
19107;SDS011;9686;48.832;9.126;2022-08-23T02:56:12;5.30;;;3.17;;
19107;SDS011;9686;48.832;9.126;2022-08-23T02:58:38;6.53;;;3.70;;
19107;SDS011;9686;48.832;9.126;2022-08-23T03:01:04;4.87;;;3.20;;
19107;SDS011;9686;48.832;9.126;2022-08-23T03:03:30;4.70;;;3.40;;
19107;SDS011;9686;48.832;9.126;2022-08-23T03:05:56;4.23;;;3.50;;
19107;SDS011;9686;48.832;9.126;2022-08-23T03:08:22;4.13;;;3.17;;
19107;SDS011;9686;48.832;9.126;2022-08-23T03:10:49;6.07;;;3.40;;
19107;SDS011;9686;48.832;9.126;2022-08-23T03:13:16;5.30;;;3.43;;
19107;SDS011;9686;48.832;9.126;2022-08-23T03:15:41;4.10;;;3.50;;
19107;SDS011;9686;48.832;9.126;2022-08-23T03:18:07;7.00;;;3.70;;
19107;SDS011;9686;48.832;9.126;2022-08-23T03:20:34;3.60;;;3.13;;
19107;SDS011;9686;48.832;9.126;2022-08-23T03:23:00;3.87;;;3.27;;
19107;SDS011;9686;48.832;9.126;2022-08-23T03:25:25;6.10;;;3.37;;
19107;SDS011;9686;48.832;9.126;2022-08-23T03:27:51;3.40;;;3.10;;
19107;SDS011;9686;48.832;9.126;2022-08-23T03:30:16;4.67;;;3.37;;
19107;SDS011;9686;48.832;9.126;2022-08-23T03:32:42;3.87;;;3.10;;
19107;SDS011;9686;48.832;9.126;2022-08-23T03:35:08;3.63;;;3.03;;
19107;SDS011;9686;48.832;9.126;2022-08-23T03:37:34;3.47;;;2.83;;
19107;SDS011;9686;48.832;9.126;2022-08-23T03:39:59;5.23;;;3.37;;
19107;SDS011;9686;48.832;9.126;2022-08-23T03:42:25;4.77;;;2.93;;
19107;SDS011;9686;48.832;9.126;2022-08-23T03:44:50;5.57;;;3.47;;
19107;SDS011;9686;48.832;9.126;2022-08-23T03:47:16;3.27;;;2.90;;
19107;SDS011;9686;48.832;9.126;2022-08-23T03:49:42;5.50;;;2.73;;
19107;SDS011;9686;48.832;9.126;2022-08-23T03:52:07;4.07;;;3.17;;
19107;SDS011;9686;48.832;9.126;2022-08-23T03:54:33;4.03;;;2.80;;
19107;SDS011;9686;48.832;9.126;2022-08-23T03:57:00;4.90;;;2.97;;
19107;SDS011;9686;48.832;9.126;2022-08-23T03:59:27;2.80;;;2.60;;
19107;SDS011;9686;48.832;9.126;2022-08-23T04:01:55;4.27;;;2.93;;
19107;SDS011;9686;48.832;9.126;2022-08-23T04:04:20;6.03;;;3.27;;
19107;SDS011;9686;48.832;9.126;2022-08-23T04:06:46;5.00;;;3.80;;
19107;SDS011;9686;48.832;9.126;2022-08-23T04:09:12;4.43;;;3.27;;
19107;SDS011;9686;48.832;9.126;2022-08-23T04:11:39;3.33;;;3.00;;
19107;SDS011;9686;48.832;9.126;2022-08-23T04:14:04;3.90;;;3.00;;
19107;SDS011;9686;48.832;9.126;2022-08-23T04:16:31;3.60;;;3.30;;
19107;SDS011;9686;48.832;9.126;2022-08-23T04:19:02;3.53;;;3.23;;
19107;SDS011;9686;48.832;9.126;2022-08-23T04:21:28;5.27;;;3.60;;
19107;SDS011;9686;48.832;9.126;2022-08-23T04:23:54;4.00;;;3.40;;
19107;SDS011;9686;48.832;9.126;2022-08-23T04:26:20;6.77;;;3.53;;
19107;SDS011;9686;48.832;9.126;2022-08-23T04:28:46;6.83;;;3.47;;
19107;SDS011;9686;48.832;9.126;2022-08-23T04:31:11;6.77;;;3.67;;
19107;SDS011;9686;48.832;9.126;2022-08-23T04:33:37;4.30;;;3.30;;
19107;SDS011;9686;48.832;9.126;2022-08-23T04:36:02;4.30;;;3.60;;
19107;SDS011;9686;48.832;9.126;2022-08-23T04:38:28;4.50;;;3.73;;
19107;SDS011;9686;48.832;9.126;2022-08-23T04:40:54;5.73;;;3.57;;
19107;SDS011;9686;48.832;9.126;2022-08-23T04:43:39;3.47;;;3.17;;
19107;SDS011;9686;48.832;9.126;2022-08-23T04:46:05;5.57;;;4.10;;
19107;SDS011;9686;48.832;9.126;2022-08-23T04:48:31;5.13;;;3.90;;
19107;SDS011;9686;48.832;9.126;2022-08-23T04:50:57;8.97;;;4.33;;
19107;SDS011;9686;48.832;9.126;2022-08-23T04:53:23;5.57;;;3.67;;
19107;SDS011;9686;48.832;9.126;2022-08-23T04:55:49;4.80;;;3.40;;
19107;SDS011;9686;48.832;9.126;2022-08-23T04:58:16;4.27;;;3.50;;
19107;SDS011;9686;48.832;9.126;2022-08-23T05:00:42;5.63;;;3.43;;
19107;SDS011;9686;48.832;9.126;2022-08-23T05:03:07;5.17;;;4.03;;
19107;SDS011;9686;48.832;9.126;2022-08-23T05:05:32;7.47;;;4.37;;
19107;SDS011;9686;48.832;9.126;2022-08-23T05:07:58;4.17;;;3.40;;
19107;SDS011;9686;48.832;9.126;2022-08-23T05:10:23;7.33;;;4.63;;
19107;SDS011;9686;48.832;9.126;2022-08-23T05:12:49;5.33;;;3.93;;
19107;SDS011;9686;48.832;9.126;2022-08-23T05:15:14;6.20;;;4.30;;
19107;SDS011;9686;48.832;9.126;2022-08-23T05:17:40;5.57;;;4.20;;
19107;SDS011;9686;48.832;9.126;2022-08-23T05:20:06;7.03;;;4.47;;
19107;SDS011;9686;48.832;9.126;2022-08-23T05:22:34;5.23;;;3.83;;
19107;SDS011;9686;48.832;9.126;2022-08-23T05:25:02;7.10;;;3.77;;
19107;SDS011;9686;48.832;9.126;2022-08-23T05:27:28;5.47;;;3.83;;
19107;SDS011;9686;48.832;9.126;2022-08-23T05:29:54;6.73;;;3.67;;
19107;SDS011;9686;48.832;9.126;2022-08-23T05:32:20;9.00;;;4.13;;
19107;SDS011;9686;48.832;9.126;2022-08-23T05:34:47;8.07;;;3.73;;
19107;SDS011;9686;48.832;9.126;2022-08-23T05:37:13;6.27;;;3.80;;
19107;SDS011;9686;48.832;9.126;2022-08-23T05:39:38;10.27;;;3.80;;
19107;SDS011;9686;48.832;9.126;2022-08-23T05:42:05;4.77;;;3.60;;
19107;SDS011;9686;48.832;9.126;2022-08-23T05:44:31;5.10;;;3.77;;
19107;SDS011;9686;48.832;9.126;2022-08-23T05:46:57;8.80;;;4.13;;
19107;SDS011;9686;48.832;9.126;2022-08-23T05:49:22;8.87;;;3.67;;
19107;SDS011;9686;48.832;9.126;2022-08-23T05:51:47;6.17;;;3.60;;
19107;SDS011;9686;48.832;9.126;2022-08-23T05:54:13;6.13;;;4.10;;
19107;SDS011;9686;48.832;9.126;2022-08-23T05:56:39;6.97;;;3.53;;
19107;SDS011;9686;48.832;9.126;2022-08-23T05:59:07;7.97;;;4.00;;
19107;SDS011;9686;48.832;9.126;2022-08-23T06:01:35;6.53;;;3.77;;
19107;SDS011;9686;48.832;9.126;2022-08-23T06:04:02;4.53;;;3.70;;
19107;SDS011;9686;48.832;9.126;2022-08-23T06:06:29;5.50;;;3.73;;
19107;SDS011;9686;48.832;9.126;2022-08-23T06:08:56;7.93;;;3.57;;
19107;SDS011;9686;48.832;9.126;2022-08-23T06:11:22;7.80;;;3.67;;
19107;SDS011;9686;48.832;9.126;2022-08-23T06:13:51;4.60;;;3.50;;
19107;SDS011;9686;48.832;9.126;2022-08-23T06:16:19;6.00;;;3.70;;
19107;SDS011;9686;48.832;9.126;2022-08-23T06:18:48;4.17;;;3.37;;
19107;SDS011;9686;48.832;9.126;2022-08-23T06:21:14;6.10;;;4.00;;
19107;SDS011;9686;48.832;9.126;2022-08-23T06:23:40;6.57;;;3.10;;
19107;SDS011;9686;48.832;9.126;2022-08-23T06:26:13;7.60;;;3.37;;
19107;SDS011;9686;48.832;9.126;2022-08-23T06:28:43;6.00;;;3.20;;
19107;SDS011;9686;48.832;9.126;2022-08-23T06:31:10;4.30;;;3.00;;
19107;SDS011;9686;48.832;9.126;2022-08-23T06:33:36;4.57;;;3.50;;
19107;SDS011;9686;48.832;9.126;2022-08-23T06:36:06;8.17;;;3.00;;
19107;SDS011;9686;48.832;9.126;2022-08-23T06:38:34;4.13;;;3.30;;
19107;SDS011;9686;48.832;9.126;2022-08-23T06:41:03;7.17;;;3.37;;
19107;SDS011;9686;48.832;9.126;2022-08-23T06:43:32;8.23;;;3.83;;
19107;SDS011;9686;48.832;9.126;2022-08-23T06:46:10;5.00;;;2.90;;
19107;SDS011;9686;48.832;9.126;2022-08-23T06:48:37;5.93;;;3.07;;
19107;SDS011;9686;48.832;9.126;2022-08-23T06:53:53;3.40;;;2.57;;
19107;SDS011;9686;48.832;9.126;2022-08-23T06:56:20;4.17;;;2.80;;
19107;SDS011;9686;48.832;9.126;2022-08-23T06:58:48;5.50;;;2.80;;
19107;SDS011;9686;48.832;9.126;2022-08-23T07:03:57;5.60;;;3.20;;
19107;SDS011;9686;48.832;9.126;2022-08-23T07:06:25;6.23;;;2.93;;
19107;SDS011;9686;48.832;9.126;2022-08-23T07:08:52;5.47;;;2.50;;
19107;SDS011;9686;48.832;9.126;2022-08-23T07:11:18;6.73;;;2.93;;
19107;SDS011;9686;48.832;9.126;2022-08-23T07:13:44;7.40;;;3.03;;
19107;SDS011;9686;48.832;9.126;2022-08-23T07:16:10;5.23;;;3.00;;
19107;SDS011;9686;48.832;9.126;2022-08-23T07:18:36;3.47;;;2.40;;
19107;SDS011;9686;48.832;9.126;2022-08-23T07:21:02;5.27;;;2.60;;
19107;SDS011;9686;48.832;9.126;2022-08-23T07:23:30;6.27;;;2.60;;
19107;SDS011;9686;48.832;9.126;2022-08-23T07:26:01;7.43;;;2.90;;
19107;SDS011;9686;48.832;9.126;2022-08-23T07:28:31;8.10;;;3.00;;
19107;SDS011;9686;48.832;9.126;2022-08-23T07:31:07;7.43;;;2.50;;
19107;SDS011;9686;48.832;9.126;2022-08-23T07:33:36;6.27;;;2.67;;
19107;SDS011;9686;48.832;9.126;2022-08-23T07:36:03;8.93;;;2.60;;
19107;SDS011;9686;48.832;9.126;2022-08-23T07:38:30;5.83;;;3.10;;
19107;SDS011;9686;48.832;9.126;2022-08-23T07:40:56;4.90;;;2.40;;
19107;SDS011;9686;48.832;9.126;2022-08-23T07:43:22;5.17;;;2.70;;
19107;SDS011;9686;48.832;9.126;2022-08-23T07:45:47;6.80;;;2.87;;
19107;SDS011;9686;48.832;9.126;2022-08-23T07:48:13;6.20;;;2.70;;
19107;SDS011;9686;48.832;9.126;2022-08-23T07:50:39;3.43;;;2.40;;
19107;SDS011;9686;48.832;9.126;2022-08-23T07:53:05;6.87;;;2.70;;
19107;SDS011;9686;48.832;9.126;2022-08-23T07:55:33;5.23;;;2.90;;
19107;SDS011;9686;48.832;9.126;2022-08-23T07:57:59;4.93;;;2.30;;
19107;SDS011;9686;48.832;9.126;2022-08-23T08:00:25;10.17;;;3.27;;
19107;SDS011;9686;48.832;9.126;2022-08-23T08:02:51;5.90;;;2.70;;
19107;SDS011;9686;48.832;9.126;2022-08-23T08:05:16;4.30;;;2.30;;
19107;SDS011;9686;48.832;9.126;2022-08-23T08:07:41;6.87;;;3.03;;
19107;SDS011;9686;48.832;9.126;2022-08-23T08:10:07;6.57;;;3.37;;
19107;SDS011;9686;48.832;9.126;2022-08-23T08:12:33;4.20;;;2.50;;
19107;SDS011;9686;48.832;9.126;2022-08-23T08:14:59;4.73;;;2.70;;
19107;SDS011;9686;48.832;9.126;2022-08-23T08:17:24;3.70;;;2.43;;
19107;SDS011;9686;48.832;9.126;2022-08-23T08:19:49;3.83;;;2.67;;
19107;SDS011;9686;48.832;9.126;2022-08-23T08:22:15;4.27;;;2.83;;
19107;SDS011;9686;48.832;9.126;2022-08-23T08:24:40;5.67;;;2.60;;
19107;SDS011;9686;48.832;9.126;2022-08-23T08:27:06;2.90;;;2.40;;
19107;SDS011;9686;48.832;9.126;2022-08-23T08:29:32;8.87;;;2.60;;
19107;SDS011;9686;48.832;9.126;2022-08-23T08:31:57;5.13;;;2.37;;
19107;SDS011;9686;48.832;9.126;2022-08-23T08:34:22;5.00;;;2.63;;
19107;SDS011;9686;48.832;9.126;2022-08-23T08:36:52;5.57;;;2.57;;
19107;SDS011;9686;48.832;9.126;2022-08-23T08:39:20;4.40;;;2.53;;
19107;SDS011;9686;48.832;9.126;2022-08-23T08:44:38;6.17;;;2.40;;
19107;SDS011;9686;48.832;9.126;2022-08-23T08:48:12;5.10;;;2.80;;
19107;SDS011;9686;48.832;9.126;2022-08-23T08:50:29;9.57;;;3.00;;
19107;SDS011;9686;48.832;9.126;2022-08-23T08:53:03;9.37;;;2.97;;
19107;SDS011;9686;48.832;9.126;2022-08-23T08:55:40;4.20;;;2.60;;
19107;SDS011;9686;48.832;9.126;2022-08-23T08:58:17;4.70;;;2.70;;
19107;SDS011;9686;48.832;9.126;2022-08-23T09:00:48;5.67;;;3.10;;
19107;SDS011;9686;48.832;9.126;2022-08-23T09:03:16;4.23;;;2.13;;
19107;SDS011;9686;48.832;9.126;2022-08-23T09:16:49;3.73;;;2.20;;
19107;SDS011;9686;48.832;9.126;2022-08-23T09:19:15;7.43;;;2.07;;
19107;SDS011;9686;48.832;9.126;2022-08-23T09:24:11;2.30;;;1.77;;
19107;SDS011;9686;48.832;9.126;2022-08-23T09:26:37;3.73;;;1.57;;
19107;SDS011;9686;48.832;9.126;2022-08-23T09:31:53;2.20;;;1.77;;
19107;SDS011;9686;48.832;9.126;2022-08-23T09:36:56;5.63;;;2.00;;
19107;SDS011;9686;48.832;9.126;2022-08-23T09:39:34;3.73;;;1.90;;
19107;SDS011;9686;48.832;9.126;2022-08-23T09:42:02;3.67;;;2.17;;
19107;SDS011;9686;48.832;9.126;2022-08-23T09:44:32;2.20;;;1.55;;
19107;SDS011;9686;48.832;9.126;2022-08-23T09:47:05;5.78;;;1.70;;
19107;SDS011;9686;48.832;9.126;2022-08-23T09:49:41;1.95;;;1.60;;
19107;SDS011;9686;48.832;9.126;2022-08-23T09:54:41;1.88;;;1.60;;
19107;SDS011;9686;48.832;9.126;2022-08-23T09:57:07;2.75;;;1.80;;
19107;SDS011;9686;48.832;9.126;2022-08-23T09:59:47;1.75;;;1.55;;
19107;SDS011;9686;48.832;9.126;2022-08-23T10:02:21;10.93;;;1.88;;
19107;SDS011;9686;48.832;9.126;2022-08-23T10:04:58;4.53;;;1.95;;
19107;SDS011;9686;48.832;9.126;2022-08-23T10:07:35;4.38;;;1.70;;
19107;SDS011;9686;48.832;9.126;2022-08-23T10:11:04;4.60;;;2.00;;
19107;SDS011;9686;48.832;9.126;2022-08-23T10:13:07;1.90;;;1.42;;
19107;SDS011;9686;48.832;9.126;2022-08-23T10:15:38;4.47;;;1.85;;
19107;SDS011;9686;48.832;9.126;2022-08-23T10:21:27;2.45;;;1.45;;
19107;SDS011;9686;48.832;9.126;2022-08-23T10:26:32;1.60;;;1.50;;
19107;SDS011;9686;48.832;9.126;2022-08-23T10:34:46;4.85;;;1.60;;
19107;SDS011;9686;48.832;9.126;2022-08-23T10:43:15;2.53;;;1.40;;
19107;SDS011;9686;48.832;9.126;2022-08-23T10:45:50;2.40;;;1.70;;
19107;SDS011;9686;48.832;9.126;2022-08-23T10:48:22;3.25;;;1.65;;
19107;SDS011;9686;48.832;9.126;2022-08-23T10:51:04;4.22;;;1.55;;
19107;SDS011;9686;48.832;9.126;2022-08-23T10:53:37;5.10;;;1.60;;
19107;SDS011;9686;48.832;9.126;2022-08-23T10:56:10;3.53;;;1.98;;
19107;SDS011;9686;48.832;9.126;2022-08-23T11:01:33;2.03;;;1.50;;
19107;SDS011;9686;48.832;9.126;2022-08-23T11:04:08;2.45;;;1.55;;
19107;SDS011;9686;48.832;9.126;2022-08-23T11:06:42;1.92;;;1.58;;
19107;SDS011;9686;48.832;9.126;2022-08-23T11:11:46;2.53;;;1.20;;
19107;SDS011;9686;48.832;9.126;2022-08-23T11:14:27;3.58;;;1.75;;
19107;SDS011;9686;48.832;9.126;2022-08-23T11:16:57;4.60;;;1.63;;
19107;SDS011;9686;48.832;9.126;2022-08-23T11:22:18;2.72;;;1.42;;
19107;SDS011;9686;48.832;9.126;2022-08-23T11:24:50;2.78;;;1.60;;
19107;SDS011;9686;48.832;9.126;2022-08-23T11:27:40;2.33;;;1.38;;
19107;SDS011;9686;48.832;9.126;2022-08-23T11:33:24;1.55;;;1.30;;
19107;SDS011;9686;48.832;9.126;2022-08-23T11:43:47;3.30;;;1.63;;
19107;SDS011;9686;48.832;9.126;2022-08-23T11:49:25;2.88;;;1.70;;
19107;SDS011;9686;48.832;9.126;2022-08-23T11:55:06;2.00;;;1.40;;
19107;SDS011;9686;48.832;9.126;2022-08-23T11:58:02;2.13;;;1.60;;
19107;SDS011;9686;48.832;9.126;2022-08-23T12:09:00;5.03;;;1.50;;
19107;SDS011;9686;48.832;9.126;2022-08-23T12:16:56;1.67;;;1.58;;
19107;SDS011;9686;48.832;9.126;2022-08-23T12:19:27;2.45;;;1.52;;
19107;SDS011;9686;48.832;9.126;2022-08-23T12:22:07;2.67;;;1.58;;
19107;SDS011;9686;48.832;9.126;2022-08-23T12:24:41;3.70;;;1.80;;
19107;SDS011;9686;48.832;9.126;2022-08-23T12:29:58;2.40;;;1.40;;
19107;SDS011;9686;48.832;9.126;2022-08-23T12:32:32;3.22;;;1.40;;
19107;SDS011;9686;48.832;9.126;2022-08-23T12:40:31;2.00;;;1.50;;
19107;SDS011;9686;48.832;9.126;2022-08-23T12:43:02;2.40;;;1.50;;
19107;SDS011;9686;48.832;9.126;2022-08-23T12:45:40;3.00;;;1.80;;
19107;SDS011;9686;48.832;9.126;2022-08-23T12:48:14;2.55;;;1.70;;
19107;SDS011;9686;48.832;9.126;2022-08-23T12:50:50;4.25;;;1.88;;
19107;SDS011;9686;48.832;9.126;2022-08-23T12:53:25;3.03;;;1.45;;
19107;SDS011;9686;48.832;9.126;2022-08-23T12:55:59;3.03;;;1.80;;
19107;SDS011;9686;48.832;9.126;2022-08-23T12:58:29;6.90;;;1.80;;
19107;SDS011;9686;48.832;9.126;2022-08-23T13:00:56;4.35;;;1.27;;
19107;SDS011;9686;48.832;9.126;2022-08-23T13:03:27;3.70;;;1.42;;
19107;SDS011;9686;48.832;9.126;2022-08-23T13:05:58;2.28;;;1.52;;
19107;SDS011;9686;48.832;9.126;2022-08-23T13:08:31;2.42;;;1.50;;
19107;SDS011;9686;48.832;9.126;2022-08-23T13:11:06;1.85;;;1.17;;
19107;SDS011;9686;48.832;9.126;2022-08-23T13:13:33;2.45;;;1.65;;
19107;SDS011;9686;48.832;9.126;2022-08-23T13:16:22;3.92;;;1.70;;
19107;SDS011;9686;48.832;9.126;2022-08-23T13:18:47;3.03;;;1.70;;
19107;SDS011;9686;48.832;9.126;2022-08-23T13:23:41;15.07;;;4.63;;
19107;SDS011;9686;48.832;9.126;2022-08-23T13:29:00;2.58;;;1.67;;
19107;SDS011;9686;48.832;9.126;2022-08-23T13:31:50;3.00;;;1.80;;
19107;SDS011;9686;48.832;9.126;2022-08-23T13:34:30;2.88;;;1.70;;
19107;SDS011;9686;48.832;9.126;2022-08-23T13:36:59;1.98;;;1.60;;
19107;SDS011;9686;48.832;9.126;2022-08-23T13:39:26;3.30;;;1.50;;
19107;SDS011;9686;48.832;9.126;2022-08-23T13:41:54;2.42;;;1.38;;
19107;SDS011;9686;48.832;9.126;2022-08-23T13:44:20;2.13;;;1.60;;
19107;SDS011;9686;48.832;9.126;2022-08-23T13:46:47;3.15;;;1.77;;
19107;SDS011;9686;48.832;9.126;2022-08-23T13:54:23;2.10;;;1.60;;
19107;SDS011;9686;48.832;9.126;2022-08-23T13:56:50;3.03;;;1.40;;
19107;SDS011;9686;48.832;9.126;2022-08-23T13:59:24;2.30;;;1.40;;
19107;SDS011;9686;48.832;9.126;2022-08-23T14:01:54;3.28;;;1.70;;
19107;SDS011;9686;48.832;9.126;2022-08-23T14:04:20;4.00;;;1.40;;
19107;SDS011;9686;48.832;9.126;2022-08-23T14:06:46;3.15;;;1.60;;
19107;SDS011;9686;48.832;9.126;2022-08-23T14:09:12;2.80;;;1.77;;
19107;SDS011;9686;48.832;9.126;2022-08-23T14:11:38;1.70;;;1.60;;
19107;SDS011;9686;48.832;9.126;2022-08-23T14:14:03;2.08;;;1.38;;
19107;SDS011;9686;48.832;9.126;2022-08-23T14:16:30;7.68;;;1.83;;
19107;SDS011;9686;48.832;9.126;2022-08-23T14:18:58;2.17;;;1.40;;
19107;SDS011;9686;48.832;9.126;2022-08-23T14:21:24;2.53;;;1.73;;
19107;SDS011;9686;48.832;9.126;2022-08-23T14:23:49;2.92;;;1.38;;
19107;SDS011;9686;48.832;9.126;2022-08-23T14:26:16;1.83;;;1.73;;
19107;SDS011;9686;48.832;9.126;2022-08-23T14:28:43;4.40;;;2.00;;
19107;SDS011;9686;48.832;9.126;2022-08-23T14:31:10;2.15;;;1.77;;
19107;SDS011;9686;48.832;9.126;2022-08-23T14:33:36;3.10;;;1.88;;
19107;SDS011;9686;48.832;9.126;2022-08-23T14:36:02;3.40;;;1.50;;
19107;SDS011;9686;48.832;9.126;2022-08-23T14:38:28;3.72;;;1.60;;
19107;SDS011;9686;48.832;9.126;2022-08-23T14:40:55;2.10;;;1.75;;
19107;SDS011;9686;48.832;9.126;2022-08-23T14:43:23;1.50;;;1.40;;
19107;SDS011;9686;48.832;9.126;2022-08-23T14:45:48;3.60;;;1.80;;
19107;SDS011;9686;48.832;9.126;2022-08-23T14:48:15;3.28;;;1.60;;
19107;SDS011;9686;48.832;9.126;2022-08-23T14:50:41;1.88;;;1.67;;
19107;SDS011;9686;48.832;9.126;2022-08-23T14:53:07;3.40;;;1.90;;
19107;SDS011;9686;48.832;9.126;2022-08-23T14:55:33;2.50;;;1.65;;
19107;SDS011;9686;48.832;9.126;2022-08-23T14:57:58;3.53;;;2.10;;
19107;SDS011;9686;48.832;9.126;2022-08-23T15:00:24;3.53;;;1.85;;
19107;SDS011;9686;48.832;9.126;2022-08-23T15:02:50;2.25;;;1.70;;
19107;SDS011;9686;48.832;9.126;2022-08-23T15:05:16;2.95;;;1.60;;
19107;SDS011;9686;48.832;9.126;2022-08-23T15:07:42;2.88;;;1.80;;
19107;SDS011;9686;48.832;9.126;2022-08-23T15:10:07;4.72;;;2.08;;
19107;SDS011;9686;48.832;9.126;2022-08-23T15:12:34;1.70;;;1.60;;
19107;SDS011;9686;48.832;9.126;2022-08-23T15:15:00;2.90;;;1.70;;
19107;SDS011;9686;48.832;9.126;2022-08-23T15:17:27;2.15;;;1.48;;
19107;SDS011;9686;48.832;9.126;2022-08-23T15:19:53;2.95;;;1.67;;
19107;SDS011;9686;48.832;9.126;2022-08-23T15:22:18;2.70;;;1.67;;
19107;SDS011;9686;48.832;9.126;2022-08-23T15:24:43;3.35;;;1.67;;
19107;SDS011;9686;48.832;9.126;2022-08-23T15:27:09;3.17;;;1.90;;
19107;SDS011;9686;48.832;9.126;2022-08-23T15:29:34;3.92;;;1.60;;
19107;SDS011;9686;48.832;9.126;2022-08-23T15:32:00;3.45;;;2.20;;
19107;SDS011;9686;48.832;9.126;2022-08-23T15:34:25;4.13;;;1.98;;
19107;SDS011;9686;48.832;9.126;2022-08-23T15:36:50;5.55;;;1.80;;
19107;SDS011;9686;48.832;9.126;2022-08-23T15:39:16;4.25;;;1.92;;
19107;SDS011;9686;48.832;9.126;2022-08-23T15:41:41;1.92;;;1.70;;
19107;SDS011;9686;48.832;9.126;2022-08-23T15:44:07;3.53;;;1.60;;
19107;SDS011;9686;48.832;9.126;2022-08-23T15:46:32;3.58;;;1.85;;
19107;SDS011;9686;48.832;9.126;2022-08-23T15:48:59;2.60;;;1.58;;
19107;SDS011;9686;48.832;9.126;2022-08-23T15:51:29;1.73;;;1.40;;
19107;SDS011;9686;48.832;9.126;2022-08-23T15:53:55;3.42;;;1.50;;
19107;SDS011;9686;48.832;9.126;2022-08-23T15:56:22;6.65;;;1.90;;
19107;SDS011;9686;48.832;9.126;2022-08-23T15:58:53;3.63;;;1.52;;
19107;SDS011;9686;48.832;9.126;2022-08-23T16:01:19;2.13;;;1.67;;
19107;SDS011;9686;48.832;9.126;2022-08-23T16:03:47;1.90;;;1.55;;
19107;SDS011;9686;48.832;9.126;2022-08-23T16:06:13;5.50;;;1.80;;
19107;SDS011;9686;48.832;9.126;2022-08-23T16:08:41;2.35;;;1.75;;
19107;SDS011;9686;48.832;9.126;2022-08-23T16:11:11;1.92;;;1.50;;
19107;SDS011;9686;48.832;9.126;2022-08-23T16:13:38;2.25;;;1.45;;
19107;SDS011;9686;48.832;9.126;2022-08-23T16:16:21;2.40;;;1.33;;
19107;SDS011;9686;48.832;9.126;2022-08-23T16:18:49;3.20;;;1.85;;
19107;SDS011;9686;48.832;9.126;2022-08-23T16:21:18;4.18;;;1.88;;
19107;SDS011;9686;48.832;9.126;2022-08-23T16:23:45;2.83;;;1.85;;
19107;SDS011;9686;48.832;9.126;2022-08-23T16:26:12;4.45;;;1.92;;
19107;SDS011;9686;48.832;9.126;2022-08-23T16:28:41;3.80;;;1.60;;
19107;SDS011;9686;48.832;9.126;2022-08-23T16:31:10;2.10;;;1.60;;
19107;SDS011;9686;48.832;9.126;2022-08-23T16:33:36;3.28;;;1.48;;
19107;SDS011;9686;48.832;9.126;2022-08-23T16:36:01;2.42;;;2.10;;
19107;SDS011;9686;48.832;9.126;2022-08-23T16:38:27;1.90;;;1.63;;
19107;SDS011;9686;48.832;9.126;2022-08-23T16:40:52;4.22;;;2.17;;
19107;SDS011;9686;48.832;9.126;2022-08-23T16:43:18;2.30;;;1.90;;
19107;SDS011;9686;48.832;9.126;2022-08-23T16:45:43;3.28;;;1.65;;
19107;SDS011;9686;48.832;9.126;2022-08-23T16:48:08;5.07;;;2.10;;
19107;SDS011;9686;48.832;9.126;2022-08-23T16:50:34;3.00;;;2.33;;
19107;SDS011;9686;48.832;9.126;2022-08-23T16:52:59;4.43;;;1.55;;
19107;SDS011;9686;48.832;9.126;2022-08-23T16:55:25;2.72;;;1.60;;
19107;SDS011;9686;48.832;9.126;2022-08-23T16:57:50;1.70;;;1.58;;
19107;SDS011;9686;48.832;9.126;2022-08-23T17:00:16;2.22;;;1.80;;